West Hartland, Connecticut
Current Conditions -  °F | °C
As of 8:51 PM on Thursday 18 Dec 2014 (Local Time) from KBDL Reporting Station
Overcast Overcast  
Wind Chill: 31°   Ceiling: 2800
Heat Index: 37°   Visibility: 10mi
Dew Point: 25°   Wind: 8mph
Humidity: 62%   Direction: 330°NNW
Pressure: 29.91"   Gusts: 17mph
Location:  42°N, 72.97°W
Report Text: KBDL 190151Z 33007G15KT 10SM OVC028 03/M04 A2991 RMK AO2 SLP130 T00281039
Loading
Personal Weather Stations






























Interactive Weather Map New forecast layout! Learn more

10-Day Weather Forecast

Advertisements
Track Severe Weather on mobile